sensor_id;sensor_type;location;lat;lon;timestamp;P1;durP1;ratioP1;P2;durP2;ratioP2
12476;SDS011;6303;51.504;6.300;2023-02-28T00:00:00;1.95;;;1.60;;
12476;SDS011;6303;51.504;6.300;2023-02-28T00:02:35;1.75;;;1.42;;
12476;SDS011;6303;51.504;6.300;2023-02-28T00:05:02;2.70;;;1.60;;
12476;SDS011;6303;51.504;6.300;2023-02-28T00:07:30;1.95;;;1.48;;
12476;SDS011;6303;51.504;6.300;2023-02-28T00:09:57;1.67;;;1.58;;
12476;SDS011;6303;51.504;6.300;2023-02-28T00:12:25;3.13;;;1.38;;
12476;SDS011;6303;51.504;6.300;2023-02-28T00:14:52;1.60;;;1.50;;
12476;SDS011;6303;51.504;6.300;2023-02-28T00:17:20;1.70;;;1.30;;
12476;SDS011;6303;51.504;6.300;2023-02-28T00:19:47;2.45;;;1.70;;
12476;SDS011;6303;51.504;6.300;2023-02-28T00:22:15;1.40;;;1.30;;
12476;SDS011;6303;51.504;6.300;2023-02-28T00:24:42;2.42;;;1.38;;
12476;SDS011;6303;51.504;6.300;2023-02-28T00:27:10;1.92;;;1.45;;
12476;SDS011;6303;51.504;6.300;2023-02-28T00:29:38;2.33;;;1.38;;
12476;SDS011;6303;51.504;6.300;2023-02-28T00:32:05;2.45;;;1.50;;
12476;SDS011;6303;51.504;6.300;2023-02-28T00:34:34;1.55;;;1.38;;
12476;SDS011;6303;51.504;6.300;2023-02-28T00:37:03;2.30;;;1.30;;
12476;SDS011;6303;51.504;6.300;2023-02-28T00:39:33;1.70;;;1.40;;
12476;SDS011;6303;51.504;6.300;2023-02-28T00:42:01;1.70;;;1.48;;
12476;SDS011;6303;51.504;6.300;2023-02-28T00:44:28;1.70;;;1.60;;
12476;SDS011;6303;51.504;6.300;2023-02-28T00:46:55;1.55;;;1.45;;
12476;SDS011;6303;51.504;6.300;2023-02-28T00:49:23;1.60;;;1.50;;
12476;SDS011;6303;51.504;6.300;2023-02-28T00:51:52;1.67;;;1.58;;
12476;SDS011;6303;51.504;6.300;2023-02-28T00:54:20;1.27;;;1.17;;
12476;SDS011;6303;51.504;6.300;2023-02-28T00:56:48;1.70;;;1.60;;
12476;SDS011;6303;51.504;6.300;2023-02-28T00:59:16;1.95;;;1.50;;
12476;SDS011;6303;51.504;6.300;2023-02-28T01:01:44;1.90;;;1.30;;
12476;SDS011;6303;51.504;6.300;2023-02-28T01:04:12;1.63;;;1.50;;
12476;SDS011;6303;51.504;6.300;2023-02-28T01:06:40;1.80;;;1.33;;
12476;SDS011;6303;51.504;6.300;2023-02-28T01:09:10;1.33;;;1.08;;
12476;SDS011;6303;51.504;6.300;2023-02-28T01:11:41;1.98;;;1.25;;
12476;SDS011;6303;51.504;6.300;2023-02-28T01:14:11;1.30;;;1.20;;
12476;SDS011;6303;51.504;6.300;2023-02-28T01:16:44;1.77;;;1.50;;
12476;SDS011;6303;51.504;6.300;2023-02-28T01:19:11;2.90;;;1.65;;
12476;SDS011;6303;51.504;6.300;2023-02-28T01:21:39;1.50;;;1.40;;
12476;SDS011;6303;51.504;6.300;2023-02-28T01:24:06;1.45;;;1.35;;
12476;SDS011;6303;51.504;6.300;2023-02-28T01:26:35;1.50;;;1.40;;
12476;SDS011;6303;51.504;6.300;2023-02-28T01:29:06;1.70;;;1.58;;
12476;SDS011;6303;51.504;6.300;2023-02-28T01:31:33;1.88;;;1.60;;
12476;SDS011;6303;51.504;6.300;2023-02-28T01:34:00;1.95;;;1.48;;
12476;SDS011;6303;51.504;6.300;2023-02-28T01:36:27;1.58;;;1.40;;
12476;SDS011;6303;51.504;6.300;2023-02-28T01:38:55;1.48;;;1.38;;
12476;SDS011;6303;51.504;6.300;2023-02-28T01:41:22;1.55;;;1.45;;
12476;SDS011;6303;51.504;6.300;2023-02-28T01:44:00;1.50;;;1.40;;
12476;SDS011;6303;51.504;6.300;2023-02-28T01:46:30;2.15;;;1.40;;
12476;SDS011;6303;51.504;6.300;2023-02-28T01:48:58;1.70;;;1.42;;
12476;SDS011;6303;51.504;6.300;2023-02-28T01:51:31;1.40;;;1.30;;
12476;SDS011;6303;51.504;6.300;2023-02-28T01:54:05;1.70;;;1.33;;
12476;SDS011;6303;51.504;6.300;2023-02-28T01:56:40;1.50;;;1.40;;
12476;SDS011;6303;51.504;6.300;2023-02-28T01:59:12;1.70;;;1.60;;
12476;SDS011;6303;51.504;6.300;2023-02-28T02:01:46;1.55;;;1.45;;
12476;SDS011;6303;51.504;6.300;2023-02-28T02:04:13;1.90;;;1.38;;
12476;SDS011;6303;51.504;6.300;2023-02-28T02:06:42;1.50;;;1.40;;
12476;SDS011;6303;51.504;6.300;2023-02-28T02:09:12;1.60;;;1.50;;
12476;SDS011;6303;51.504;6.300;2023-02-28T02:11:39;1.50;;;1.40;;
12476;SDS011;6303;51.504;6.300;2023-02-28T02:14:16;1.52;;;1.42;;
12476;SDS011;6303;51.504;6.300;2023-02-28T02:17:05;1.67;;;1.48;;
12476;SDS011;6303;51.504;6.300;2023-02-28T02:19:53;1.38;;;1.27;;
12476;SDS011;6303;51.504;6.300;2023-02-28T02:22:51;1.60;;;1.50;;
12476;SDS011;6303;51.504;6.300;2023-02-28T02:25:43;1.80;;;1.52;;
12476;SDS011;6303;51.504;6.300;2023-02-28T02:28:20;2.33;;;1.80;;
12476;SDS011;6303;51.504;6.300;2023-02-28T02:31:17;1.52;;;1.42;;
12476;SDS011;6303;51.504;6.300;2023-02-28T02:34:20;1.60;;;1.50;;
12476;SDS011;6303;51.504;6.300;2023-02-28T02:36:53;1.40;;;1.30;;
12476;SDS011;6303;51.504;6.300;2023-02-28T02:39:30;2.38;;;1.38;;
12476;SDS011;6303;51.504;6.300;2023-02-28T02:42:03;1.75;;;1.40;;
12476;SDS011;6303;51.504;6.300;2023-02-28T02:44:39;1.58;;;1.42;;
12476;SDS011;6303;51.504;6.300;2023-02-28T02:47:11;1.50;;;1.40;;
12476;SDS011;6303;51.504;6.300;2023-02-28T02:49:43;1.58;;;1.48;;
12476;SDS011;6303;51.504;6.300;2023-02-28T02:52:15;1.48;;;1.33;;
12476;SDS011;6303;51.504;6.300;2023-02-28T02:54:47;1.30;;;1.20;;
12476;SDS011;6303;51.504;6.300;2023-02-28T02:57:19;1.42;;;1.33;;
12476;SDS011;6303;51.504;6.300;2023-02-28T02:59:50;2.00;;;1.70;;
12476;SDS011;6303;51.504;6.300;2023-02-28T03:02:21;1.33;;;1.23;;
12476;SDS011;6303;51.504;6.300;2023-02-28T03:04:52;1.67;;;1.52;;
12476;SDS011;6303;51.504;6.300;2023-02-28T03:07:25;1.52;;;1.30;;
12476;SDS011;6303;51.504;6.300;2023-02-28T03:09:53;1.55;;;1.45;;
12476;SDS011;6303;51.504;6.300;2023-02-28T03:12:22;2.08;;;1.63;;
12476;SDS011;6303;51.504;6.300;2023-02-28T03:14:56;1.70;;;1.60;;
12476;SDS011;6303;51.504;6.300;2023-02-28T03:17:36;1.33;;;1.23;;
12476;SDS011;6303;51.504;6.300;2023-02-28T03:20:32;1.50;;;1.40;;
12476;SDS011;6303;51.504;6.300;2023-02-28T03:23:08;1.50;;;1.40;;
12476;SDS011;6303;51.504;6.300;2023-02-28T03:25:44;1.50;;;1.40;;
12476;SDS011;6303;51.504;6.300;2023-02-28T03:28:23;1.38;;;1.27;;
12476;SDS011;6303;51.504;6.300;2023-02-28T03:30:59;1.63;;;1.50;;
12476;SDS011;6303;51.504;6.300;2023-02-28T03:33:30;1.45;;;1.35;;
12476;SDS011;6303;51.504;6.300;2023-02-28T03:36:04;1.50;;;1.40;;
12476;SDS011;6303;51.504;6.300;2023-02-28T03:38:35;1.85;;;1.38;;
12476;SDS011;6303;51.504;6.300;2023-02-28T03:41:09;1.80;;;1.40;;
12476;SDS011;6303;51.504;6.300;2023-02-28T03:43:40;1.45;;;1.35;;
12476;SDS011;6303;51.504;6.300;2023-02-28T03:46:12;1.50;;;1.40;;
12476;SDS011;6303;51.504;6.300;2023-02-28T03:48:42;1.75;;;1.40;;
12476;SDS011;6303;51.504;6.300;2023-02-28T03:51:15;1.65;;;1.55;;
12476;SDS011;6303;51.504;6.300;2023-02-28T03:53:45;1.27;;;1.27;;
12476;SDS011;6303;51.504;6.300;2023-02-28T03:56:18;1.60;;;1.48;;
12476;SDS011;6303;51.504;6.300;2023-02-28T03:58:49;1.42;;;1.33;;
12476;SDS011;6303;51.504;6.300;2023-02-28T04:01:20;1.80;;;1.40;;
12476;SDS011;6303;51.504;6.300;2023-02-28T04:03:53;2.22;;;1.50;;
12476;SDS011;6303;51.504;6.300;2023-02-28T04:06:22;1.48;;;1.38;;
12476;SDS011;6303;51.504;6.300;2023-02-28T04:08:50;1.52;;;1.40;;
12476;SDS011;6303;51.504;6.300;2023-02-28T04:11:22;1.40;;;1.30;;
12476;SDS011;6303;51.504;6.300;2023-02-28T04:13:53;1.50;;;1.40;;
12476;SDS011;6303;51.504;6.300;2023-02-28T04:16:19;1.42;;;1.30;;
12476;SDS011;6303;51.504;6.300;2023-02-28T04:18:47;1.50;;;1.40;;
12476;SDS011;6303;51.504;6.300;2023-02-28T04:21:14;1.40;;;1.30;;
12476;SDS011;6303;51.504;6.300;2023-02-28T04:23:47;1.85;;;1.58;;
12476;SDS011;6303;51.504;6.300;2023-02-28T04:26:14;1.40;;;1.30;;
12476;SDS011;6303;51.504;6.300;2023-02-28T04:28:41;1.55;;;1.45;;
12476;SDS011;6303;51.504;6.300;2023-02-28T04:31:08;2.05;;;1.40;;
12476;SDS011;6303;51.504;6.300;2023-02-28T04:33:35;1.50;;;1.40;;
12476;SDS011;6303;51.504;6.300;2023-02-28T04:36:03;1.40;;;1.30;;
12476;SDS011;6303;51.504;6.300;2023-02-28T04:38:33;1.67;;;1.58;;
12476;SDS011;6303;51.504;6.300;2023-02-28T04:41:02;1.65;;;1.55;;
12476;SDS011;6303;51.504;6.300;2023-02-28T04:43:30;1.70;;;1.48;;
12476;SDS011;6303;51.504;6.300;2023-02-28T04:46:00;1.45;;;1.35;;
12476;SDS011;6303;51.504;6.300;2023-02-28T04:48:28;2.65;;;1.50;;
12476;SDS011;6303;51.504;6.300;2023-02-28T04:50:59;1.50;;;1.40;;
12476;SDS011;6303;51.504;6.300;2023-02-28T04:53:27;1.58;;;1.48;;
12476;SDS011;6303;51.504;6.300;2023-02-28T04:55:54;1.65;;;1.45;;
12476;SDS011;6303;51.504;6.300;2023-02-28T04:58:23;1.40;;;1.30;;
12476;SDS011;6303;51.504;6.300;2023-02-28T05:00:50;1.55;;;1.45;;
12476;SDS011;6303;51.504;6.300;2023-02-28T05:03:17;1.60;;;1.50;;
12476;SDS011;6303;51.504;6.300;2023-02-28T05:05:45;1.60;;;1.50;;
12476;SDS011;6303;51.504;6.300;2023-02-28T05:08:13;1.80;;;1.48;;
12476;SDS011;6303;51.504;6.300;2023-02-28T05:10:40;1.42;;;1.33;;
12476;SDS011;6303;51.504;6.300;2023-02-28T05:13:08;1.75;;;1.40;;
12476;SDS011;6303;51.504;6.300;2023-02-28T05:15:38;2.03;;;1.30;;
12476;SDS011;6303;51.504;6.300;2023-02-28T05:18:05;1.60;;;1.50;;
12476;SDS011;6303;51.504;6.300;2023-02-28T05:20:34;1.42;;;1.33;;
12476;SDS011;6303;51.504;6.300;2023-02-28T05:23:01;1.40;;;1.30;;
12476;SDS011;6303;51.504;6.300;2023-02-28T05:25:28;1.60;;;1.50;;
12476;SDS011;6303;51.504;6.300;2023-02-28T05:27:55;1.25;;;1.20;;
12476;SDS011;6303;51.504;6.300;2023-02-28T05:30:22;1.45;;;1.35;;
12476;SDS011;6303;51.504;6.300;2023-02-28T05:32:51;1.50;;;1.40;;
12476;SDS011;6303;51.504;6.300;2023-02-28T05:35:18;1.50;;;1.40;;
12476;SDS011;6303;51.504;6.300;2023-02-28T05:37:45;2.05;;;1.30;;
12476;SDS011;6303;51.504;6.300;2023-02-28T05:40:12;1.40;;;1.30;;
12476;SDS011;6303;51.504;6.300;2023-02-28T05:42:40;1.30;;;1.20;;
12476;SDS011;6303;51.504;6.300;2023-02-28T05:45:08;1.42;;;1.33;;
12476;SDS011;6303;51.504;6.300;2023-02-28T05:47:35;1.63;;;1.50;;
12476;SDS011;6303;51.504;6.300;2023-02-28T05:50:04;1.67;;;1.58;;
12476;SDS011;6303;51.504;6.300;2023-02-28T05:52:32;1.80;;;1.60;;
12476;SDS011;6303;51.504;6.300;2023-02-28T05:54:59;1.52;;;1.42;;
12476;SDS011;6303;51.504;6.300;2023-02-28T05:57:26;1.98;;;1.50;;
12476;SDS011;6303;51.504;6.300;2023-02-28T05:59:53;1.40;;;1.30;;
12476;SDS011;6303;51.504;6.300;2023-02-28T06:02:20;1.50;;;1.40;;
12476;SDS011;6303;51.504;6.300;2023-02-28T06:04:47;1.40;;;1.30;;
12476;SDS011;6303;51.504;6.300;2023-02-28T06:07:15;1.40;;;1.23;;
12476;SDS011;6303;51.504;6.300;2023-02-28T06:09:43;1.55;;;1.30;;
12476;SDS011;6303;51.504;6.300;2023-02-28T06:12:10;1.58;;;1.40;;
12476;SDS011;6303;51.504;6.300;2023-02-28T06:14:37;2.17;;;1.30;;
12476;SDS011;6303;51.504;6.300;2023-02-28T06:17:04;1.27;;;1.23;;
12476;SDS011;6303;51.504;6.300;2023-02-28T06:19:31;1.52;;;1.33;;
12476;SDS011;6303;51.504;6.300;2023-02-28T06:21:58;3.45;;;1.65;;
12476;SDS011;6303;51.504;6.300;2023-02-28T06:24:27;3.05;;;1.85;;
12476;SDS011;6303;51.504;6.300;2023-02-28T06:26:55;5.10;;;1.90;;
12476;SDS011;6303;51.504;6.300;2023-02-28T06:29:24;5.55;;;2.45;;
12476;SDS011;6303;51.504;6.300;2023-02-28T06:31:51;3.88;;;2.08;;
12476;SDS011;6303;51.504;6.300;2023-02-28T06:34:18;4.95;;;2.05;;
12476;SDS011;6303;51.504;6.300;2023-02-28T06:36:45;5.57;;;2.58;;
12476;SDS011;6303;51.504;6.300;2023-02-28T06:39:12;6.60;;;2.53;;
12476;SDS011;6303;51.504;6.300;2023-02-28T06:41:40;4.38;;;2.15;;
12476;SDS011;6303;51.504;6.300;2023-02-28T06:44:11;3.67;;;2.00;;
12476;SDS011;6303;51.504;6.300;2023-02-28T06:46:39;3.58;;;2.30;;
12476;SDS011;6303;51.504;6.300;2023-02-28T06:49:07;4.63;;;1.90;;
12476;SDS011;6303;51.504;6.300;2023-02-28T06:51:35;5.07;;;2.35;;
12476;SDS011;6303;51.504;6.300;2023-02-28T06:54:04;4.68;;;1.98;;
12476;SDS011;6303;51.504;6.300;2023-02-28T06:56:34;5.78;;;2.20;;
12476;SDS011;6303;51.504;6.300;2023-02-28T06:59:03;3.47;;;1.85;;
12476;SDS011;6303;51.504;6.300;2023-02-28T07:01:30;4.70;;;2.08;;
12476;SDS011;6303;51.504;6.300;2023-02-28T07:03:57;4.07;;;1.90;;
12476;SDS011;6303;51.504;6.300;2023-02-28T07:06:25;3.47;;;1.92;;
12476;SDS011;6303;51.504;6.300;2023-02-28T07:08:53;2.83;;;1.92;;
12476;SDS011;6303;51.504;6.300;2023-02-28T07:11:20;2.78;;;2.03;;
12476;SDS011;6303;51.504;6.300;2023-02-28T07:13:50;2.67;;;1.67;;
12476;SDS011;6303;51.504;6.300;2023-02-28T07:16:19;2.78;;;1.85;;
12476;SDS011;6303;51.504;6.300;2023-02-28T07:18:46;2.47;;;1.60;;
12476;SDS011;6303;51.504;6.300;2023-02-28T07:21:13;2.08;;;1.80;;
12476;SDS011;6303;51.504;6.300;2023-02-28T07:23:41;2.67;;;1.60;;
12476;SDS011;6303;51.504;6.300;2023-02-28T07:26:10;2.40;;;1.80;;
12476;SDS011;6303;51.504;6.300;2023-02-28T07:28:40;1.98;;;1.67;;
12476;SDS011;6303;51.504;6.300;2023-02-28T07:31:08;2.67;;;1.73;;
12476;SDS011;6303;51.504;6.300;2023-02-28T07:33:38;2.83;;;1.85;;
12476;SDS011;6303;51.504;6.300;2023-02-28T07:36:05;2.47;;;1.65;;
12476;SDS011;6303;51.504;6.300;2023-02-28T07:38:34;3.15;;;1.73;;
12476;SDS011;6303;51.504;6.300;2023-02-28T07:41:02;2.17;;;1.70;;
12476;SDS011;6303;51.504;6.300;2023-02-28T07:43:30;2.63;;;1.60;;
12476;SDS011;6303;51.504;6.300;2023-02-28T07:46:01;1.92;;;1.80;;
12476;SDS011;6303;51.504;6.300;2023-02-28T07:48:29;4.22;;;1.70;;
12476;SDS011;6303;51.504;6.300;2023-02-28T07:50:58;3.13;;;1.65;;
12476;SDS011;6303;51.504;6.300;2023-02-28T07:53:26;2.03;;;1.48;;
12476;SDS011;6303;51.504;6.300;2023-02-28T07:55:54;2.33;;;1.70;;
12476;SDS011;6303;51.504;6.300;2023-02-28T07:58:22;2.42;;;1.58;;
12476;SDS011;6303;51.504;6.300;2023-02-28T08:00:49;3.08;;;1.60;;
12476;SDS011;6303;51.504;6.300;2023-02-28T08:03:17;2.50;;;1.48;;
12476;SDS011;6303;51.504;6.300;2023-02-28T08:05:45;1.83;;;1.58;;
12476;SDS011;6303;51.504;6.300;2023-02-28T08:08:14;2.08;;;1.52;;
12476;SDS011;6303;51.504;6.300;2023-02-28T08:10:42;2.67;;;1.58;;
12476;SDS011;6303;51.504;6.300;2023-02-28T08:13:09;2.58;;;1.80;;
12476;SDS011;6303;51.504;6.300;2023-02-28T08:15:36;2.47;;;1.65;;
12476;SDS011;6303;51.504;6.300;2023-02-28T08:18:03;2.10;;;1.40;;
12476;SDS011;6303;51.504;6.300;2023-02-28T08:20:30;1.73;;;1.45;;
12476;SDS011;6303;51.504;6.300;2023-02-28T08:22:57;1.83;;;1.40;;
12476;SDS011;6303;51.504;6.300;2023-02-28T08:25:26;2.10;;;1.40;;
12476;SDS011;6303;51.504;6.300;2023-02-28T08:27:53;3.30;;;1.60;;
12476;SDS011;6303;51.504;6.300;2023-02-28T08:30:20;3.20;;;1.38;;
12476;SDS011;6303;51.504;6.300;2023-02-28T08:32:47;1.70;;;1.25;;
12476;SDS011;6303;51.504;6.300;2023-02-28T08:35:14;2.65;;;1.38;;
12476;SDS011;6303;51.504;6.300;2023-02-28T08:37:41;2.80;;;1.55;;
12476;SDS011;6303;51.504;6.300;2023-02-28T08:40:09;2.13;;;1.42;;
12476;SDS011;6303;51.504;6.300;2023-02-28T08:42:40;2.17;;;1.58;;
12476;SDS011;6303;51.504;6.300;2023-02-28T08:45:07;1.20;;;1.10;;
12476;SDS011;6303;51.504;6.300;2023-02-28T08:47:34;3.08;;;1.67;;
12476;SDS011;6303;51.504;6.300;2023-02-28T08:50:01;1.83;;;1.45;;
12476;SDS011;6303;51.504;6.300;2023-02-28T08:52:29;1.67;;;1.33;;
12476;SDS011;6303;51.504;6.300;2023-02-28T08:54:56;1.50;;;1.40;;
12476;SDS011;6303;51.504;6.300;2023-02-28T08:57:23;1.30;;;1.20;;
12476;SDS011;6303;51.504;6.300;2023-02-28T08:59:52;1.90;;;1.35;;
12476;SDS011;6303;51.504;6.300;2023-02-28T09:02:19;1.50;;;1.40;;
12476;SDS011;6303;51.504;6.300;2023-02-28T09:04:47;1.90;;;1.50;;
12476;SDS011;6303;51.504;6.300;2023-02-28T09:07:14;1.50;;;1.40;;
12476;SDS011;6303;51.504;6.300;2023-02-28T09:09:41;1.38;;;1.27;;
12476;SDS011;6303;51.504;6.300;2023-02-28T09:12:18;1.55;;;1.42;;
12476;SDS011;6303;51.504;6.300;2023-02-28T09:14:46;1.83;;;1.17;;
12476;SDS011;6303;51.504;6.300;2023-02-28T09:17:14;1.83;;;1.60;;
12476;SDS011;6303;51.504;6.300;2023-02-28T09:19:41;4.47;;;1.33;;
12476;SDS011;6303;51.504;6.300;2023-02-28T09:22:09;4.80;;;1.35;;
12476;SDS011;6303;51.504;6.300;2023-02-28T09:24:38;1.80;;;1.55;;
12476;SDS011;6303;51.504;6.300;2023-02-28T09:27:05;1.95;;;1.50;;
12476;SDS011;6303;51.504;6.300;2023-02-28T09:29:32;1.58;;;1.40;;
12476;SDS011;6303;51.504;6.300;2023-02-28T09:32:00;1.85;;;1.45;;
12476;SDS011;6303;51.504;6.300;2023-02-28T09:34:32;1.65;;;1.40;;
12476;SDS011;6303;51.504;6.300;2023-02-28T09:36:59;1.88;;;1.35;;
12476;SDS011;6303;51.504;6.300;2023-02-28T09:39:26;1.75;;;1.35;;
12476;SDS011;6303;51.504;6.300;2023-02-28T09:41:54;2.13;;;1.60;;
12476;SDS011;6303;51.504;6.300;2023-02-28T09:44:25;1.30;;;1.20;;
12476;SDS011;6303;51.504;6.300;2023-02-28T09:46:57;2.17;;;1.30;;
12476;SDS011;6303;51.504;6.300;2023-02-28T09:49:28;1.20;;;1.20;;
12476;SDS011;6303;51.504;6.300;2023-02-28T09:52:01;1.40;;;1.30;;
12476;SDS011;6303;51.504;6.300;2023-02-28T09:54:31;1.92;;;1.35;;
12476;SDS011;6303;51.504;6.300;2023-02-28T09:56:59;1.73;;;1.40;;
12476;SDS011;6303;51.504;6.300;2023-02-28T09:59:38;1.30;;;1.20;;
12476;SDS011;6303;51.504;6.300;2023-02-28T10:02:14;1.40;;;1.30;;
12476;SDS011;6303;51.504;6.300;2023-02-28T10:05:01;1.25;;;1.15;;
12476;SDS011;6303;51.504;6.300;2023-02-28T10:07:37;1.50;;;1.40;;
12476;SDS011;6303;51.504;6.300;2023-02-28T10:10:26;1.58;;;1.20;;
12476;SDS011;6303;51.504;6.300;2023-02-28T10:12:57;2.08;;;1.50;;
12476;SDS011;6303;51.504;6.300;2023-02-28T10:15:29;1.40;;;1.30;;
12476;SDS011;6303;51.504;6.300;2023-02-28T10:17:59;1.20;;;1.10;;
12476;SDS011;6303;51.504;6.300;2023-02-28T10:20:31;1.20;;;1.10;;
12476;SDS011;6303;51.504;6.300;2023-02-28T10:23:02;1.55;;;1.23;;
12476;SDS011;6303;51.504;6.300;2023-02-28T10:25:36;1.30;;;1.20;;
12476;SDS011;6303;51.504;6.300;2023-02-28T10:30:57;1.35;;;1.10;;
12476;SDS011;6303;51.504;6.300;2023-02-28T10:33:25;1.50;;;1.20;;
12476;SDS011;6303;51.504;6.300;2023-02-28T10:35:57;1.45;;;1.30;;
12476;SDS011;6303;51.504;6.300;2023-02-28T10:38:26;1.40;;;1.30;;
12476;SDS011;6303;51.504;6.300;2023-02-28T10:41:03;1.30;;;1.20;;
12476;SDS011;6303;51.504;6.300;2023-02-28T10:43:31;1.30;;;1.20;;
12476;SDS011;6303;51.504;6.300;2023-02-28T10:45:59;1.30;;;1.20;;
12476;SDS011;6303;51.504;6.300;2023-02-28T10:48:30;1.30;;;1.20;;
12476;SDS011;6303;51.504;6.300;2023-02-28T10:51:01;1.30;;;1.20;;
12476;SDS011;6303;51.504;6.300;2023-02-28T10:53:31;1.15;;;1.10;;
12476;SDS011;6303;51.504;6.300;2023-02-28T10:56:02;1.60;;;1.25;;
12476;SDS011;6303;51.504;6.300;2023-02-28T10:58:31;1.63;;;1.20;;
12476;SDS011;6303;51.504;6.300;2023-02-28T11:01:14;1.48;;;1.30;;
12476;SDS011;6303;51.504;6.300;2023-02-28T11:03:42;1.20;;;1.10;;
12476;SDS011;6303;51.504;6.300;2023-02-28T11:06:14;2.05;;;1.10;;
12476;SDS011;6303;51.504;6.300;2023-02-28T11:08:46;1.33;;;1.23;;
12476;SDS011;6303;51.504;6.300;2023-02-28T11:11:15;1.38;;;1.20;;
12476;SDS011;6303;51.504;6.300;2023-02-28T11:13:44;1.30;;;1.20;;
12476;SDS011;6303;51.504;6.300;2023-02-28T11:16:13;1.15;;;1.15;;
12476;SDS011;6303;51.504;6.300;2023-02-28T11:18:43;1.30;;;1.20;;
12476;SDS011;6303;51.504;6.300;2023-02-28T11:21:20;1.25;;;1.15;;
12476;SDS011;6303;51.504;6.300;2023-02-28T11:23:50;1.13;;;1.00;;
12476;SDS011;6303;51.504;6.300;2023-02-28T11:26:40;1.55;;;1.15;;
12476;SDS011;6303;51.504;6.300;2023-02-28T11:29:11;1.38;;;1.20;;
12476;SDS011;6303;51.504;6.300;2023-02-28T11:31:42;1.30;;;1.20;;
12476;SDS011;6303;51.504;6.300;2023-02-28T11:34:23;1.20;;;1.10;;
12476;SDS011;6303;51.504;6.300;2023-02-28T11:36:54;1.13;;;1.10;;
12476;SDS011;6303;51.504;6.300;2023-02-28T11:39:24;1.35;;;1.10;;
12476;SDS011;6303;51.504;6.300;2023-02-28T11:41:55;1.30;;;1.20;;
12476;SDS011;6303;51.504;6.300;2023-02-28T11:44:43;1.20;;;1.10;;
12476;SDS011;6303;51.504;6.300;2023-02-28T11:47:24;1.30;;;1.20;;
12476;SDS011;6303;51.504;6.300;2023-02-28T11:50:03;1.27;;;1.17;;
12476;SDS011;6303;51.504;6.300;2023-02-28T11:52:44;1.23;;;1.13;;
12476;SDS011;6303;51.504;6.300;2023-02-28T11:55:19;4.05;;;1.17;;
12476;SDS011;6303;51.504;6.300;2023-02-28T11:57:59;1.20;;;1.10;;
12476;SDS011;6303;51.504;6.300;2023-02-28T12:00:38;1.25;;;1.15;;
12476;SDS011;6303;51.504;6.300;2023-02-28T12:03:18;1.10;;;1.00;;
12476;SDS011;6303;51.504;6.300;2023-02-28T12:05:56;2.72;;;1.15;;
12476;SDS011;6303;51.504;6.300;2023-02-28T12:08:36;1.90;;;1.20;;
12476;SDS011;6303;51.504;6.300;2023-02-28T12:11:11;1.67;;;1.30;;
12476;SDS011;6303;51.504;6.300;2023-02-28T12:13:46;2.05;;;1.15;;
12476;SDS011;6303;51.504;6.300;2023-02-28T12:16:27;1.48;;;1.10;;
12476;SDS011;6303;51.504;6.300;2023-02-28T12:19:16;0.93;;;0.93;;
12476;SDS011;6303;51.504;6.300;2023-02-28T12:24:58;1.40;;;1.30;;
12476;SDS011;6303;51.504;6.300;2023-02-28T12:27:43;2.58;;;1.10;;
12476;SDS011;6303;51.504;6.300;2023-02-28T12:30:13;1.10;;;1.00;;
12476;SDS011;6303;51.504;6.300;2023-02-28T12:32:44;1.83;;;1.20;;
12476;SDS011;6303;51.504;6.300;2023-02-28T12:35:15;1.55;;;1.17;;
12476;SDS011;6303;51.504;6.300;2023-02-28T12:37:46;1.70;;;0.93;;
12476;SDS011;6303;51.504;6.300;2023-02-28T12:40:22;2.45;;;1.10;;
12476;SDS011;6303;51.504;6.300;2023-02-28T12:42:52;1.90;;;1.20;;
12476;SDS011;6303;51.504;6.300;2023-02-28T12:45:23;3.03;;;1.10;;
12476;SDS011;6303;51.504;6.300;2023-02-28T12:47:55;2.35;;;1.13;;
12476;SDS011;6303;51.504;6.300;2023-02-28T12:50:26;2.05;;;1.27;;
12476;SDS011;6303;51.504;6.300;2023-02-28T12:52:58;4.25;;;1.30;;
12476;SDS011;6303;51.504;6.300;2023-02-28T12:55:31;1.10;;;1.00;;
12476;SDS011;6303;51.504;6.300;2023-02-28T12:58:07;2.30;;;1.30;;
12476;SDS011;6303;51.504;6.300;2023-02-28T13:00:43;1.50;;;1.05;;
12476;SDS011;6303;51.504;6.300;2023-02-28T13:03:27;1.13;;;1.05;;
12476;SDS011;6303;51.504;6.300;2023-02-28T13:06:23;1.08;;;0.90;;
12476;SDS011;6303;51.504;6.300;2023-02-28T13:09:03;3.50;;;1.00;;
12476;SDS011;6303;51.504;6.300;2023-02-28T13:11:39;1.52;;;1.10;;
12476;SDS011;6303;51.504;6.300;2023-02-28T13:14:20;1.70;;;0.95;;
12476;SDS011;6303;51.504;6.300;2023-02-28T13:16:54;1.45;;;1.00;;
12476;SDS011;6303;51.504;6.300;2023-02-28T13:19:25;1.52;;;1.02;;
12476;SDS011;6303;51.504;6.300;2023-02-28T13:21:55;1.92;;;1.02;;
12476;SDS011;6303;51.504;6.300;2023-02-28T13:24:37;1.20;;;1.10;;
12476;SDS011;6303;51.504;6.300;2023-02-28T13:30:00;2.97;;;1.40;;
12476;SDS011;6303;51.504;6.300;2023-02-28T13:32:51;1.45;;;1.15;;
12476;SDS011;6303;51.504;6.300;2023-02-28T13:35:48;0.90;;;0.90;;
12476;SDS011;6303;51.504;6.300;2023-02-28T13:38:33;2.08;;;1.10;;
12476;SDS011;6303;51.504;6.300;2023-02-28T13:44:10;1.02;;;1.00;;
12476;SDS011;6303;51.504;6.300;2023-02-28T13:49:38;1.42;;;0.85;;
12476;SDS011;6303;51.504;6.300;2023-02-28T13:52:07;1.15;;;1.00;;
12476;SDS011;6303;51.504;6.300;2023-02-28T13:54:44;1.25;;;0.90;;
12476;SDS011;6303;51.504;6.300;2023-02-28T13:57:31;1.05;;;0.80;;
12476;SDS011;6303;51.504;6.300;2023-02-28T14:00:15;1.95;;;1.13;;
12476;SDS011;6303;51.504;6.300;2023-02-28T14:02:54;2.00;;;0.98;;
12476;SDS011;6303;51.504;6.300;2023-02-28T14:05:40;1.25;;;1.00;;
12476;SDS011;6303;51.504;6.300;2023-02-28T14:08:11;1.77;;;1.10;;
12476;SDS011;6303;51.504;6.300;2023-02-28T14:10:44;1.00;;;0.90;;
12476;SDS011;6303;51.504;6.300;2023-02-28T14:16:13;0.90;;;0.90;;
12476;SDS011;6303;51.504;6.300;2023-02-28T14:18:43;1.38;;;1.05;;
12476;SDS011;6303;51.504;6.300;2023-02-28T14:21:21;1.05;;;0.80;;
12476;SDS011;6303;51.504;6.300;2023-02-28T14:30:11;1.95;;;1.00;;
12476;SDS011;6303;51.504;6.300;2023-02-28T14:33:14;1.10;;;1.10;;
12476;SDS011;6303;51.504;6.300;2023-02-28T14:36:01;1.70;;;1.10;;
12476;SDS011;6303;51.504;6.300;2023-02-28T14:38:36;0.80;;;0.80;;
12476;SDS011;6303;51.504;6.300;2023-02-28T14:41:13;1.27;;;0.90;;
12476;SDS011;6303;51.504;6.300;2023-02-28T14:43:53;0.90;;;0.90;;
12476;SDS011;6303;51.504;6.300;2023-02-28T14:46:22;1.60;;;0.90;;
12476;SDS011;6303;51.504;6.300;2023-02-28T14:48:55;1.08;;;0.98;;
12476;SDS011;6303;51.504;6.300;2023-02-28T14:51:23;1.10;;;1.00;;
12476;SDS011;6303;51.504;6.300;2023-02-28T14:53:52;2.85;;;1.00;;
12476;SDS011;6303;51.504;6.300;2023-02-28T14:56:27;1.67;;;1.10;;
12476;SDS011;6303;51.504;6.300;2023-02-28T14:58:59;1.17;;;1.05;;
12476;SDS011;6303;51.504;6.300;2023-02-28T15:01:26;1.77;;;0.90;;
12476;SDS011;6303;51.504;6.300;2023-02-28T15:03:59;0.98;;;0.98;;
12476;SDS011;6303;51.504;6.300;2023-02-28T15:06:28;1.05;;;0.98;;
12476;SDS011;6303;51.504;6.300;2023-02-28T15:09:09;1.00;;;0.80;;
12476;SDS011;6303;51.504;6.300;2023-02-28T15:11:40;0.80;;;0.80;;
12476;SDS011;6303;51.504;6.300;2023-02-28T15:14:13;1.70;;;0.90;;
12476;SDS011;6303;51.504;6.300;2023-02-28T15:16:45;0.80;;;0.80;;
12476;SDS011;6303;51.504;6.300;2023-02-28T15:19:19;1.40;;;0.90;;
12476;SDS011;6303;51.504;6.300;2023-02-28T15:21:50;0.90;;;0.90;;
12476;SDS011;6303;51.504;6.300;2023-02-28T15:24:27;0.90;;;0.90;;
12476;SDS011;6303;51.504;6.300;2023-02-28T15:27:00;0.82;;;0.82;;
12476;SDS011;6303;51.504;6.300;2023-02-28T15:29:32;1.42;;;1.10;;
12476;SDS011;6303;51.504;6.300;2023-02-28T15:32:18;0.90;;;0.90;;
12476;SDS011;6303;51.504;6.300;2023-02-28T15:34:52;1.05;;;1.00;;
12476;SDS011;6303;51.504;6.300;2023-02-28T15:37:29;1.23;;;1.10;;
12476;SDS011;6303;51.504;6.300;2023-02-28T15:40:11;1.52;;;1.10;;
12476;SDS011;6303;51.504;6.300;2023-02-28T15:42:41;1.52;;;1.10;;
12476;SDS011;6303;51.504;6.300;2023-02-28T15:48:00;1.30;;;1.00;;
12476;SDS011;6303;51.504;6.300;2023-02-28T15:50:28;2.30;;;1.17;;
12476;SDS011;6303;51.504;6.300;2023-02-28T15:52:55;1.90;;;1.10;;